createdAt,value
2022-10-13T00:02:52.817Z,4.60
2022-10-13T00:07:55.033Z,4.93
2022-10-13T00:12:56.864Z,3.50
2022-10-13T00:17:58.519Z,4.27
2022-10-13T00:23:00.343Z,5.87
2022-10-13T00:28:01.965Z,7.20
2022-10-13T00:33:04.361Z,6.70
2022-10-13T00:38:06.000Z,12.10
2022-10-13T00:43:19.214Z,13.93
2022-10-13T00:48:28.118Z,4.70
2022-10-13T00:53:36.123Z,6.80
2022-10-13T00:58:40.595Z,9.17
2022-10-13T01:03:42.317Z,6.30
2022-10-13T01:08:44.018Z,11.83
2022-10-13T01:14:13.105Z,7.10
2022-10-13T01:20:06.027Z,7.47
2022-10-13T01:26:08.145Z,4.27
2022-10-13T01:31:46.995Z,6.83
2022-10-13T01:37:09.181Z,5.33
2022-10-13T01:42:36.016Z,6.70
2022-10-13T01:47:39.809Z,10.63
2022-10-13T01:52:43.289Z,7.20
2022-10-13T01:57:45.915Z,6.70
2022-10-13T02:03:15.187Z,8.02
2022-10-13T02:08:39.621Z,8.60
2022-10-13T02:13:58.711Z,10.43
2022-10-13T02:19:05.705Z,7.70
2022-10-13T02:24:08.743Z,9.23
2022-10-13T02:29:17.031Z,7.23
2022-10-13T02:34:18.686Z,5.53
2022-10-13T02:39:20.367Z,7.83
2022-10-13T02:44:22.098Z,5.90
2022-10-13T02:49:23.771Z,10.00
2022-10-13T02:54:25.422Z,8.30
2022-10-13T02:59:27.073Z,4.43
2022-10-13T03:04:29.097Z,9.67
2022-10-13T03:09:30.821Z,6.23
2022-10-13T03:14:32.518Z,6.97
2022-10-13T03:19:34.190Z,9.80
2022-10-13T03:24:35.890Z,7.47
2022-10-13T03:29:37.621Z,6.73
2022-10-13T03:34:39.292Z,6.90
2022-10-13T03:39:41.001Z,8.90
2022-10-13T03:44:42.641Z,5.40
2022-10-13T03:49:44.268Z,8.33
2022-10-13T03:54:45.892Z,10.37
2022-10-13T03:59:47.599Z,6.27
2022-10-13T04:04:50.132Z,8.70
2022-10-13T04:09:51.770Z,10.40
2022-10-13T04:14:53.387Z,7.77
2022-10-13T04:19:55.034Z,7.23
2022-10-13T04:24:56.693Z,10.03
2022-10-13T04:29:58.954Z,10.17
2022-10-13T04:35:00.842Z,6.33
2022-10-13T04:40:02.713Z,8.23
2022-10-13T04:45:04.989Z,10.40
2022-10-13T04:50:07.458Z,10.60
2022-10-13T04:55:09.383Z,9.13
2022-10-13T05:00:12.160Z,7.13
2022-10-13T05:05:14.199Z,11.00
2022-10-13T05:10:15.931Z,5.63
2022-10-13T05:15:17.709Z,12.20
2022-10-13T05:20:19.585Z,15.70
2022-10-13T05:25:21.225Z,10.70
2022-10-13T05:30:22.869Z,14.70
2022-10-13T05:35:26.381Z,11.67
2022-10-13T05:40:29.215Z,9.50
2022-10-13T05:45:33.580Z,8.43
2022-10-13T05:50:35.300Z,9.60
2022-10-13T05:55:38.676Z,7.10
2022-10-13T06:00:42.858Z,9.00
2022-10-13T06:05:47.490Z,11.60
2022-10-13T06:10:49.255Z,16.27
2022-10-13T06:15:53.096Z,9.97
2022-10-13T06:20:54.781Z,9.83
2022-10-13T06:25:56.537Z,13.53
2022-10-13T06:30:58.191Z,22.07
2022-10-13T06:36:06.374Z,13.13
2022-10-13T06:41:08.148Z,17.40
2022-10-13T06:46:11.736Z,13.07
2022-10-13T06:51:13.503Z,11.60
2022-10-13T06:56:15.474Z,15.53
2022-10-13T07:01:17.164Z,10.90
2022-10-13T07:06:19.294Z,13.77
2022-10-13T07:11:21.025Z,12.57
2022-10-13T07:16:22.830Z,17.43
2022-10-13T07:21:24.508Z,12.10
2022-10-13T07:26:26.185Z,12.97
2022-10-13T07:31:28.206Z,11.63
2022-10-13T07:36:29.876Z,16.80
2022-10-13T07:41:31.533Z,11.20
2022-10-13T07:46:34.119Z,16.07
2022-10-13T07:51:35.865Z,15.80
2022-10-13T07:56:38.323Z,17.47
2022-10-13T08:01:41.006Z,15.43
2022-10-13T08:06:42.920Z,13.43
2022-10-13T08:11:44.593Z,14.47
2022-10-13T08:16:49.921Z,25.27
2022-10-13T08:21:58.300Z,16.70
2022-10-13T08:27:00.742Z,16.03
2022-10-13T08:32:02.398Z,17.60
2022-10-13T08:37:04.494Z,16.23
2022-10-13T08:42:20.363Z,15.33
2022-10-13T08:47:58.421Z,13.97
2022-10-13T08:53:18.441Z,13.27
2022-10-13T08:58:29.402Z,13.87
2022-10-13T09:03:31.466Z,12.43
2022-10-13T09:08:49.921Z,16.00
2022-10-13T09:13:57.408Z,15.70
2022-10-13T09:19:15.802Z,13.63
2022-10-13T09:24:21.748Z,12.30
2022-10-13T09:29:26.859Z,20.90
2022-10-13T09:34:30.195Z,16.17
2022-10-13T09:39:34.252Z,14.77
2022-10-13T09:44:36.113Z,13.77
2022-10-13T09:49:44.463Z,15.40
2022-10-13T09:54:58.519Z,13.73
2022-10-13T10:00:22.086Z,23.57
2022-10-13T10:05:47.628Z,16.37
2022-10-13T10:10:49.346Z,14.50
2022-10-13T10:16:00.722Z,18.80
2022-10-13T10:21:37.510Z,24.03
2022-10-13T10:27:06.513Z,19.10
2022-10-13T10:32:49.226Z,12.67
2022-10-13T10:38:20.876Z,16.80
2022-10-13T10:44:00.460Z,17.23
2022-10-13T10:49:25.617Z,16.10
2022-10-13T10:54:58.827Z,14.47
2022-10-13T11:00:17.255Z,16.43
2022-10-13T11:05:19.292Z,10.20
2022-10-13T11:10:23.098Z,12.77
2022-10-13T11:15:43.604Z,12.33
2022-10-13T11:20:45.085Z,14.63
2022-10-13T11:25:48.770Z,16.63
2022-10-13T11:30:58.013Z,12.13
2022-10-13T11:36:57.442Z,8.77
2022-10-13T11:42:25.210Z,18.27
2022-10-13T11:48:11.237Z,13.17
2022-10-13T11:53:27.957Z,10.20
2022-10-13T11:58:33.788Z,12.90
2022-10-13T12:03:39.493Z,7.63
2022-10-13T12:08:41.257Z,7.50
2022-10-13T12:13:47.063Z,12.03
2022-10-13T12:18:49.391Z,7.03
2022-10-13T12:24:05.264Z,8.50
2022-10-13T12:29:14.905Z,7.77
2022-10-13T12:34:29.288Z,11.33
2022-10-13T12:39:34.870Z,6.63
2022-10-13T12:44:37.424Z,7.37
2022-10-13T12:49:39.205Z,12.03
2022-10-13T12:54:56.174Z,15.33
2022-10-13T12:59:58.377Z,13.93
2022-10-13T13:05:00.011Z,7.90
2022-10-13T13:10:07.720Z,9.30
2022-10-13T13:15:36.929Z,7.13
2022-10-13T13:20:38.597Z,7.33
2022-10-13T13:25:40.446Z,10.90
2022-10-13T13:30:42.682Z,11.70
2022-10-13T13:35:44.408Z,8.70
2022-10-13T13:40:46.141Z,11.37
2022-10-13T13:45:47.937Z,7.47
2022-10-13T13:50:49.602Z,8.20
2022-10-13T13:55:52.076Z,5.90
2022-10-13T14:00:54.529Z,11.23
2022-10-13T14:05:56.207Z,10.20
2022-10-13T14:10:58.095Z,7.90
2022-10-13T14:16:02.605Z,16.37
2022-10-13T14:21:08.346Z,9.90
2022-10-13T14:26:10.032Z,9.70
2022-10-13T14:31:12.565Z,9.90
2022-10-13T14:36:14.605Z,7.70
2022-10-13T14:41:17.084Z,9.70
2022-10-13T14:46:18.769Z,10.73
2022-10-13T14:51:20.440Z,6.40
2022-10-13T14:56:30.151Z,11.10
2022-10-13T15:01:33.429Z,7.97
2022-10-13T15:06:39.446Z,7.43
2022-10-13T15:11:41.169Z,6.77
2022-10-13T15:16:42.874Z,6.47
2022-10-13T15:21:44.537Z,6.67
2022-10-13T15:26:46.198Z,6.80
2022-10-13T15:31:47.939Z,6.33
2022-10-13T15:36:49.596Z,9.40
2022-10-13T15:41:51.222Z,8.87
2022-10-13T15:47:07.537Z,11.27
2022-10-13T15:52:10.141Z,15.20
2022-10-13T15:57:11.894Z,10.47
2022-10-13T16:02:13.564Z,12.03
2022-10-13T16:07:15.313Z,26.93
2022-10-13T16:12:16.992Z,13.97
2022-10-13T16:17:18.685Z,15.20
2022-10-13T16:22:21.025Z,10.27
2022-10-13T16:27:23.934Z,8.97
2022-10-13T16:32:25.615Z,19.00
2022-10-13T16:37:27.253Z,9.00
2022-10-13T16:42:28.971Z,19.53
2022-10-13T16:47:31.362Z,10.70
2022-10-13T16:52:33.041Z,19.53
2022-10-13T16:57:34.701Z,17.10
2022-10-13T17:02:36.534Z,16.60
2022-10-13T17:07:38.290Z,25.17
2022-10-13T17:12:40.079Z,21.87
2022-10-13T17:17:41.807Z,20.33
2022-10-13T17:22:43.526Z,31.90
2022-10-13T17:27:45.374Z,26.67
2022-10-13T17:32:47.026Z,18.43
2022-10-13T17:37:49.967Z,18.27
2022-10-13T17:42:51.595Z,13.30
2022-10-13T17:47:53.447Z,19.43
2022-10-13T17:52:55.423Z,20.20
2022-10-13T17:57:57.170Z,26.53
2022-10-13T18:03:05.379Z,30.60
2022-10-13T18:08:10.701Z,16.40
2022-10-13T18:13:12.724Z,17.83
2022-10-13T18:18:19.980Z,17.07
2022-10-13T18:23:24.224Z,17.03
2022-10-13T18:28:36.197Z,15.53
2022-10-13T18:33:39.212Z,16.97
2022-10-13T18:38:40.943Z,36.87
2022-10-13T18:43:42.947Z,15.30
2022-10-13T18:48:44.620Z,20.27
2022-10-13T18:53:50.585Z,16.97
2022-10-13T18:58:59.496Z,19.67
2022-10-13T19:04:02.253Z,13.67
2022-10-13T19:09:11.825Z,18.40
2022-10-13T19:14:13.932Z,16.33
2022-10-13T19:19:16.638Z,20.80
2022-10-13T19:24:19.972Z,21.27
2022-10-13T19:29:21.996Z,16.07
2022-10-13T19:34:23.700Z,18.87
2022-10-13T19:39:27.388Z,19.77
2022-10-13T19:44:29.125Z,16.77
2022-10-13T19:49:30.801Z,17.57
2022-10-13T19:54:35.606Z,19.97
2022-10-13T19:59:37.691Z,17.20
2022-10-13T20:04:39.348Z,25.10
2022-10-13T20:09:41.102Z,19.33
2022-10-13T20:14:43.049Z,22.83
2022-10-13T20:19:44.729Z,15.73
2022-10-13T20:24:46.504Z,20.27
2022-10-13T20:29:48.279Z,16.33
2022-10-13T20:34:52.352Z,20.47
2022-10-13T20:39:54.021Z,28.60
2022-10-13T20:44:56.888Z,18.93
2022-10-13T20:49:58.587Z,18.77
2022-10-13T20:55:00.508Z,21.57
2022-10-13T21:00:02.177Z,23.27
2022-10-13T21:05:04.140Z,20.80
2022-10-13T21:10:06.807Z,20.50
2022-10-13T21:15:09.708Z,20.03
2022-10-13T21:20:11.434Z,28.07
2022-10-13T21:25:13.127Z,24.67
2022-10-13T21:30:15.107Z,22.67
2022-10-13T21:35:17.238Z,26.63
2022-10-13T21:40:18.903Z,19.90
2022-10-13T21:45:20.607Z,20.10
2022-10-13T21:50:22.373Z,19.40
2022-10-13T21:55:24.036Z,23.40
2022-10-13T22:00:25.787Z,26.70
2022-10-13T22:05:27.506Z,23.23
2022-10-13T22:10:29.142Z,22.10
2022-10-13T22:15:35.239Z,23.07
2022-10-13T22:20:37.018Z,26.97
2022-10-13T22:25:46.192Z,34.03
2022-10-13T22:30:48.198Z,20.70
2022-10-13T22:35:49.837Z,20.10
2022-10-13T22:40:51.571Z,21.00
2022-10-13T22:45:53.266Z,17.13
2022-10-13T22:50:55.260Z,23.53
2022-10-13T22:55:57.253Z,17.83
2022-10-13T23:01:06.299Z,22.80
2022-10-13T23:06:14.149Z,19.90
2022-10-13T23:11:18.009Z,21.47
2022-10-13T23:16:24.051Z,22.70
2022-10-13T23:21:30.058Z,19.10
2022-10-13T23:26:33.870Z,19.43
2022-10-13T23:31:35.717Z,24.37
2022-10-13T23:36:37.408Z,21.30
2022-10-13T23:41:39.212Z,24.60
2022-10-13T23:46:40.874Z,21.00
2022-10-13T23:51:44.072Z,27.43
2022-10-13T23:56:45.705Z,23.90
